sensor_id;sensor_type;location;lat;lon;timestamp;pressure;altitude;pressure_sealevel;temperature;humidity
24486;BME280;13449;49.374;8.584;2023-02-28T00:00:37;101492.63;;;0.47;62.02
24486;BME280;13449;49.374;8.584;2023-02-28T00:03:06;101501.81;;;0.43;61.86
24486;BME280;13449;49.374;8.584;2023-02-28T00:05:33;101485.34;;;0.35;62.66
24486;BME280;13449;49.374;8.584;2023-02-28T00:07:59;101474.63;;;0.21;62.79
24486;BME280;13449;49.374;8.584;2023-02-28T00:10:28;101466.75;;;0.18;63.58
24486;BME280;13449;49.374;8.584;2023-02-28T00:13:05;101469.84;;;0.26;62.93
24486;BME280;13449;49.374;8.584;2023-02-28T00:15:33;101464.28;;;0.15;63.05
24486;BME280;13449;49.374;8.584;2023-02-28T00:18:02;101453.56;;;0.15;63.97
24486;BME280;13449;49.374;8.584;2023-02-28T00:20:31;101456.59;;;0.09;64.07
24486;BME280;13449;49.374;8.584;2023-02-28T00:22:58;101452.56;;;0.02;64.38
24486;BME280;13449;49.374;8.584;2023-02-28T00:25:25;101438.91;;;0.06;64.96
24486;BME280;13449;49.374;8.584;2023-02-28T00:27:52;101440.78;;;0.04;64.58
24486;BME280;13449;49.374;8.584;2023-02-28T00:30:20;101436.50;;;0.02;65.22
24486;BME280;13449;49.374;8.584;2023-02-28T00:32:48;101433.41;;;-0.07;65.54
24486;BME280;13449;49.374;8.584;2023-02-28T00:35:15;101429.41;;;-0.14;65.81
24486;BME280;13449;49.374;8.584;2023-02-28T00:37:42;101421.16;;;-0.11;66.16
24486;BME280;13449;49.374;8.584;2023-02-28T00:40:09;101433.13;;;-0.16;66.20
24486;BME280;13449;49.374;8.584;2023-02-28T00:42:36;101423.38;;;-0.17;66.90
24486;BME280;13449;49.374;8.584;2023-02-28T00:45:03;101419.16;;;-0.21;66.75
24486;BME280;13449;49.374;8.584;2023-02-28T00:47:31;101421.34;;;-0.28;67.20
24486;BME280;13449;49.374;8.584;2023-02-28T00:49:58;101424.41;;;-0.34;67.45
24486;BME280;13449;49.374;8.584;2023-02-28T00:52:25;101432.25;;;-0.31;67.18
24486;BME280;13449;49.374;8.584;2023-02-28T00:54:51;101436.94;;;-0.34;67.33
24486;BME280;13449;49.374;8.584;2023-02-28T00:57:23;101429.53;;;-0.45;67.53
24486;BME280;13449;49.374;8.584;2023-02-28T00:59:54;101423.50;;;-0.49;67.70
24486;BME280;13449;49.374;8.584;2023-02-28T01:02:22;101431.91;;;-0.55;68.15
24486;BME280;13449;49.374;8.584;2023-02-28T01:04:49;101441.09;;;-0.59;68.25
24486;BME280;13449;49.374;8.584;2023-02-28T01:07:15;101436.31;;;-0.68;68.50
24486;BME280;13449;49.374;8.584;2023-02-28T01:09:42;101433.63;;;-0.68;69.35
24486;BME280;13449;49.374;8.584;2023-02-28T01:12:08;101429.69;;;-0.62;68.95
24486;BME280;13449;49.374;8.584;2023-02-28T01:14:35;101445.59;;;-0.59;68.52
24486;BME280;13449;49.374;8.584;2023-02-28T01:17:02;101445.16;;;-0.67;68.65
24486;BME280;13449;49.374;8.584;2023-02-28T01:19:31;101442.88;;;-0.73;69.21
24486;BME280;13449;49.374;8.584;2023-02-28T01:22:01;101435.28;;;-0.81;69.74
24486;BME280;13449;49.374;8.584;2023-02-28T01:24:29;101434.91;;;-0.75;70.26
24486;BME280;13449;49.374;8.584;2023-02-28T01:26:58;101453.09;;;-0.80;69.45
24486;BME280;13449;49.374;8.584;2023-02-28T01:29:24;101445.91;;;-0.79;69.70
24486;BME280;13449;49.374;8.584;2023-02-28T01:31:53;101456.28;;;-0.59;69.40
24486;BME280;13449;49.374;8.584;2023-02-28T01:34:21;101457.53;;;-0.65;69.67
24486;BME280;13449;49.374;8.584;2023-02-28T01:36:48;101448.03;;;-0.70;69.55
24486;BME280;13449;49.374;8.584;2023-02-28T01:39:14;101456.06;;;-0.70;70.15
24486;BME280;13449;49.374;8.584;2023-02-28T01:41:43;101455.19;;;-0.71;69.82
24486;BME280;13449;49.374;8.584;2023-02-28T01:47:16;101447.63;;;-0.78;70.21
24486;BME280;13449;49.374;8.584;2023-02-28T01:49:43;101449.28;;;-0.76;70.84
24486;BME280;13449;49.374;8.584;2023-02-28T01:52:10;101454.44;;;-0.73;70.59
24486;BME280;13449;49.374;8.584;2023-02-28T01:54:41;101446.84;;;-0.80;70.83
24486;BME280;13449;49.374;8.584;2023-02-28T01:57:10;101442.81;;;-0.87;71.08
24486;BME280;13449;49.374;8.584;2023-02-28T01:59:43;101440.31;;;-0.90;70.98
24486;BME280;13449;49.374;8.584;2023-02-28T02:02:20;101433.66;;;-0.83;71.19
24486;BME280;13449;49.374;8.584;2023-02-28T02:04:56;101442.72;;;-0.86;71.04
24486;BME280;13449;49.374;8.584;2023-02-28T02:07:31;101441.59;;;-0.82;71.00
24486;BME280;13449;49.374;8.584;2023-02-28T02:10:02;101436.22;;;-0.82;71.49
24486;BME280;13449;49.374;8.584;2023-02-28T02:15:12;101435.56;;;-1.01;71.80
24486;BME280;13449;49.374;8.584;2023-02-28T02:17:46;101436.34;;;-0.83;71.10
24486;BME280;13449;49.374;8.584;2023-02-28T02:31:47;101432.19;;;-0.89;71.39
24486;BME280;13449;49.374;8.584;2023-02-28T02:39:45;101428.25;;;-0.98;72.50
24486;BME280;13449;49.374;8.584;2023-02-28T02:42:16;101422.50;;;-1.06;72.51
24486;BME280;13449;49.374;8.584;2023-02-28T02:44:52;101419.81;;;-1.06;72.80
24486;BME280;13449;49.374;8.584;2023-02-28T02:47:24;101424.56;;;-1.11;73.16
24486;BME280;13449;49.374;8.584;2023-02-28T02:49:54;101425.50;;;-1.12;72.46
24486;BME280;13449;49.374;8.584;2023-02-28T02:52:31;101431.47;;;-1.07;72.75
24486;BME280;13449;49.374;8.584;2023-02-28T02:55:02;101417.41;;;-1.10;72.82
24486;BME280;13449;49.374;8.584;2023-02-28T02:57:44;101423.25;;;-1.04;73.17
24486;BME280;13449;49.374;8.584;2023-02-28T03:00:14;101426.09;;;-1.07;72.85
24486;BME280;13449;49.374;8.584;2023-02-28T03:02:43;101425.94;;;-1.19;73.41
24486;BME280;13449;49.374;8.584;2023-02-28T03:05:35;101424.13;;;-1.19;72.93
24486;BME280;13449;49.374;8.584;2023-02-28T03:08:06;101416.59;;;-1.12;73.72
24486;BME280;13449;49.374;8.584;2023-02-28T03:10:41;101428.53;;;-1.18;73.36
24486;BME280;13449;49.374;8.584;2023-02-28T03:18:32;101427.06;;;-1.08;72.89
24486;BME280;13449;49.374;8.584;2023-02-28T03:21:20;101431.72;;;-1.27;73.38
24486;BME280;13449;49.374;8.584;2023-02-28T03:24:07;101419.47;;;-1.15;73.42
24486;BME280;13449;49.374;8.584;2023-02-28T03:26:39;101425.69;;;-1.15;72.89
24486;BME280;13449;49.374;8.584;2023-02-28T03:29:28;101423.03;;;-1.30;73.87
24486;BME280;13449;49.374;8.584;2023-02-28T03:32:08;101422.41;;;-1.20;73.34
24486;BME280;13449;49.374;8.584;2023-02-28T03:37:34;101438.59;;;-0.91;72.45
24486;BME280;13449;49.374;8.584;2023-02-28T03:40:06;101436.88;;;-0.92;72.17
24486;BME280;13449;49.374;8.584;2023-02-28T03:42:42;101431.50;;;-0.92;72.24
24486;BME280;13449;49.374;8.584;2023-02-28T03:45:29;101423.63;;;-1.10;72.75
24486;BME280;13449;49.374;8.584;2023-02-28T03:48:03;101418.72;;;-0.87;73.04
24486;BME280;13449;49.374;8.584;2023-02-28T03:50:44;101439.53;;;-0.92;72.19
24486;BME280;13449;49.374;8.584;2023-02-28T03:53:22;101432.44;;;-0.93;72.14
24486;BME280;13449;49.374;8.584;2023-02-28T03:56:18;101427.06;;;-1.08;72.94
24486;BME280;13449;49.374;8.584;2023-02-28T03:58:57;101432.06;;;-1.02;72.60
24486;BME280;13449;49.374;8.584;2023-02-28T04:03:53;101429.38;;;-1.02;72.55
24486;BME280;13449;49.374;8.584;2023-02-28T04:06:21;101437.53;;;-0.89;72.66
24486;BME280;13449;49.374;8.584;2023-02-28T04:08:51;101419.38;;;-0.98;72.50
24486;BME280;13449;49.374;8.584;2023-02-28T04:11:30;101416.69;;;-0.98;72.74
24486;BME280;13449;49.374;8.584;2023-02-28T04:14:01;101419.88;;;-1.07;73.06
24486;BME280;13449;49.374;8.584;2023-02-28T04:16:31;101421.19;;;-0.99;72.80
24486;BME280;13449;49.374;8.584;2023-02-28T04:19:02;101422.75;;;-1.10;73.28
24486;BME280;13449;49.374;8.584;2023-02-28T04:21:44;101417.22;;;-1.07;73.05
24486;BME280;13449;49.374;8.584;2023-02-28T04:24:16;101424.75;;;-1.14;73.41
24486;BME280;13449;49.374;8.584;2023-02-28T04:26:46;101418.38;;;-0.97;73.31
24486;BME280;13449;49.374;8.584;2023-02-28T04:29:22;101423.94;;;-1.00;73.06
24486;BME280;13449;49.374;8.584;2023-02-28T04:31:48;101426.88;;;-1.05;73.17
24486;BME280;13449;49.374;8.584;2023-02-28T04:34:18;101420.16;;;-1.12;73.73
24486;BME280;13449;49.374;8.584;2023-02-28T04:36:47;101424.97;;;-1.03;72.89
24486;BME280;13449;49.374;8.584;2023-02-28T04:39:36;101422.50;;;-1.06;72.72
24486;BME280;13449;49.374;8.584;2023-02-28T04:42:03;101423.25;;;-1.04;72.99
24486;BME280;13449;49.374;8.584;2023-02-28T04:44:30;101416.84;;;-1.01;73.11
24486;BME280;13449;49.374;8.584;2023-02-28T04:46:56;101429.63;;;-0.90;73.00
24486;BME280;13449;49.374;8.584;2023-02-28T04:49:23;101424.16;;;-0.89;72.59
24486;BME280;13449;49.374;8.584;2023-02-28T04:51:50;101424.56;;;-0.81;72.28
24486;BME280;13449;49.374;8.584;2023-02-28T04:54:16;101425.44;;;-0.80;72.31
24486;BME280;13449;49.374;8.584;2023-02-28T04:56:46;101428.88;;;-0.78;72.21
24486;BME280;13449;49.374;8.584;2023-02-28T04:59:16;101428.72;;;-0.75;72.46
24486;BME280;13449;49.374;8.584;2023-02-28T05:01:48;101434.84;;;-0.73;72.06
24486;BME280;13449;49.374;8.584;2023-02-28T05:04:15;101446.00;;;-0.51;71.99
24486;BME280;13449;49.374;8.584;2023-02-28T05:06:41;101439.69;;;-0.50;72.04
24486;BME280;13449;49.374;8.584;2023-02-28T05:09:08;101447.44;;;-0.45;71.36
24486;BME280;13449;49.374;8.584;2023-02-28T05:11:37;101451.94;;;-0.46;71.61
24486;BME280;13449;49.374;8.584;2023-02-28T05:14:09;101444.31;;;-0.38;71.26
24486;BME280;13449;49.374;8.584;2023-02-28T05:16:36;101452.44;;;-0.39;71.08
24486;BME280;13449;49.374;8.584;2023-02-28T05:19:05;101455.03;;;-0.38;70.63
24486;BME280;13449;49.374;8.584;2023-02-28T05:21:49;101454.91;;;-0.36;70.35
24486;BME280;13449;49.374;8.584;2023-02-28T05:24:19;101458.88;;;-0.28;70.30
24486;BME280;13449;49.374;8.584;2023-02-28T05:26:51;101454.56;;;-0.30;70.69
24486;BME280;13449;49.374;8.584;2023-02-28T05:29:18;101457.81;;;-0.25;70.51
24486;BME280;13449;49.374;8.584;2023-02-28T05:31:45;101460.28;;;-0.22;69.74
24486;BME280;13449;49.374;8.584;2023-02-28T05:34:14;101460.28;;;-0.22;69.55
24486;BME280;13449;49.374;8.584;2023-02-28T05:36:46;101470.06;;;-0.21;70.08
24486;BME280;13449;49.374;8.584;2023-02-28T05:39:12;101474.97;;;-0.14;69.74
24486;BME280;13449;49.374;8.584;2023-02-28T05:41:41;101473.22;;;-0.15;69.38
24486;BME280;13449;49.374;8.584;2023-02-28T05:44:08;101468.94;;;-0.17;69.59
24486;BME280;13449;49.374;8.584;2023-02-28T05:46:35;101476.69;;;-0.13;69.36
24486;BME280;13449;49.374;8.584;2023-02-28T05:49:03;101478.44;;;-0.12;69.61
24486;BME280;13449;49.374;8.584;2023-02-28T05:51:30;101475.16;;;-0.17;69.88
24486;BME280;13449;49.374;8.584;2023-02-28T05:54:01;101474.78;;;-0.11;69.11
24486;BME280;13449;49.374;8.584;2023-02-28T05:56:28;101479.25;;;-0.11;69.46
24486;BME280;13449;49.374;8.584;2023-02-28T05:58:54;101482.72;;;-0.09;69.43
24486;BME280;13449;49.374;8.584;2023-02-28T06:01:35;101478.44;;;-0.12;69.35
24486;BME280;13449;49.374;8.584;2023-02-28T06:04:05;101468.06;;;-0.18;69.61
24486;BME280;13449;49.374;8.584;2023-02-28T06:06:32;101470.00;;;-0.20;69.77
24486;BME280;13449;49.374;8.584;2023-02-28T06:09:03;101483.13;;;-0.15;69.10
24486;BME280;13449;49.374;8.584;2023-02-28T06:11:31;101487.00;;;-0.21;69.21
24486;BME280;13449;49.374;8.584;2023-02-28T06:13:58;101475.53;;;-0.23;69.61
24486;BME280;13449;49.374;8.584;2023-02-28T06:16:27;101482.59;;;-0.22;69.25
24486;BME280;13449;49.374;8.584;2023-02-28T06:18:54;101486.16;;;-0.21;69.08
24486;BME280;13449;49.374;8.584;2023-02-28T06:21:26;101495.06;;;-0.21;69.31
24486;BME280;13449;49.374;8.584;2023-02-28T06:23:57;101496.59;;;-0.17;68.61
24486;BME280;13449;49.374;8.584;2023-02-28T06:26:24;101500.22;;;-0.18;68.63
24486;BME280;13449;49.374;8.584;2023-02-28T06:28:53;101499.88;;;-0.12;68.78
24486;BME280;13449;49.374;8.584;2023-02-28T06:31:20;101500.63;;;-0.10;69.01
24486;BME280;13449;49.374;8.584;2023-02-28T06:33:47;101495.19;;;-0.08;68.73
24486;BME280;13449;49.374;8.584;2023-02-28T06:36:16;101497.94;;;-0.10;68.87
24486;BME280;13449;49.374;8.584;2023-02-28T06:38:43;101503.09;;;-0.07;68.78
24486;BME280;13449;49.374;8.584;2023-02-28T06:41:11;101511.94;;;-0.05;68.67
24486;BME280;13449;49.374;8.584;2023-02-28T06:43:40;101509.66;;;0.04;68.97
24486;BME280;13449;49.374;8.584;2023-02-28T06:46:10;101510.34;;;0.07;68.31
24486;BME280;13449;49.374;8.584;2023-02-28T06:48:38;101514.63;;;0.10;68.88
24486;BME280;13449;49.374;8.584;2023-02-28T06:51:13;101523.28;;;0.15;68.41
24486;BME280;13449;49.374;8.584;2023-02-28T06:53:40;101520.94;;;0.23;68.27
24486;BME280;13449;49.374;8.584;2023-02-28T06:56:09;101526.81;;;0.29;67.97
24486;BME280;13449;49.374;8.584;2023-02-28T06:58:36;101524.03;;;0.31;67.78
24486;BME280;13449;49.374;8.584;2023-02-28T07:01:06;101529.19;;;0.34;67.18
24486;BME280;13449;49.374;8.584;2023-02-28T07:03:34;101530.56;;;0.41;66.88
24486;BME280;13449;49.374;8.584;2023-02-28T07:06:01;101534.00;;;0.43;66.75
24486;BME280;13449;49.374;8.584;2023-02-28T07:08:28;101552.22;;;0.52;66.48
24486;BME280;13449;49.374;8.584;2023-02-28T07:10:57;101549.22;;;0.57;66.57
24486;BME280;13449;49.374;8.584;2023-02-28T07:13:24;101559.47;;;0.64;66.39
24486;BME280;13449;49.374;8.584;2023-02-28T07:15:59;101565.34;;;0.71;66.50
24486;BME280;13449;49.374;8.584;2023-02-28T07:18:26;101573.19;;;0.74;66.51
24486;BME280;13449;49.374;8.584;2023-02-28T07:20:53;101574.53;;;0.81;65.85
24486;BME280;13449;49.374;8.584;2023-02-28T07:23:20;101575.00;;;0.87;66.17
24486;BME280;13449;49.374;8.584;2023-02-28T07:25:47;101573.66;;;0.94;66.28
24486;BME280;13449;49.374;8.584;2023-02-28T07:28:16;101582.09;;;1.03;65.33
24486;BME280;13449;49.374;8.584;2023-02-28T07:30:45;101584.56;;;1.20;65.64
24486;BME280;13449;49.374;8.584;2023-02-28T07:33:12;101575.81;;;1.30;65.08
24486;BME280;13449;49.374;8.584;2023-02-28T07:35:39;101592.22;;;1.26;64.79
24486;BME280;13449;49.374;8.584;2023-02-28T07:38:06;101577.50;;;1.31;65.21
24486;BME280;13449;49.374;8.584;2023-02-28T07:40:35;101595.75;;;1.26;64.06
24486;BME280;13449;49.374;8.584;2023-02-28T07:43:04;101592.00;;;1.29;64.15
24486;BME280;13449;49.374;8.584;2023-02-28T07:45:31;101594.69;;;1.29;64.11
24486;BME280;13449;49.374;8.584;2023-02-28T07:48:01;101600.06;;;1.29;64.03
24486;BME280;13449;49.374;8.584;2023-02-28T07:50:30;101599.84;;;1.46;63.93
24486;BME280;13449;49.374;8.584;2023-02-28T07:53:00;101612.97;;;1.51;63.14
24486;BME280;13449;49.374;8.584;2023-02-28T07:55:27;101613.22;;;1.60;63.54
24486;BME280;13449;49.374;8.584;2023-02-28T07:57:53;101611.06;;;1.92;63.31
24486;BME280;13449;49.374;8.584;2023-02-28T08:00:23;101644.06;;;1.81;62.11
24486;BME280;13449;49.374;8.584;2023-02-28T08:02:50;101639.03;;;1.89;62.11
24486;BME280;13449;49.374;8.584;2023-02-28T08:05:20;101638.84;;;1.92;61.94
24486;BME280;13449;49.374;8.584;2023-02-28T08:07:49;101638.19;;;1.89;62.25
24486;BME280;13449;49.374;8.584;2023-02-28T08:10:15;101637.56;;;1.98;61.76
24486;BME280;13449;49.374;8.584;2023-02-28T08:12:42;101637.97;;;1.92;61.59
24486;BME280;13449;49.374;8.584;2023-02-28T08:15:09;101652.91;;;1.83;61.38
24486;BME280;13449;49.374;8.584;2023-02-28T08:17:38;101643.13;;;1.82;61.88
24486;BME280;13449;49.374;8.584;2023-02-28T08:20:07;101640.81;;;1.76;61.82
24486;BME280;13449;49.374;8.584;2023-02-28T08:22:35;101625.38;;;1.80;61.85
24486;BME280;13449;49.374;8.584;2023-02-28T08:25:02;101621.81;;;1.79;62.25
24486;BME280;13449;49.374;8.584;2023-02-28T08:27:28;101620.22;;;1.89;62.01
24486;BME280;13449;49.374;8.584;2023-02-28T08:29:55;101641.16;;;1.84;61.46
24486;BME280;13449;49.374;8.584;2023-02-28T08:32:21;101629.38;;;1.87;61.52
24486;BME280;13449;49.374;8.584;2023-02-28T08:34:56;101621.97;;;1.90;61.41
24486;BME280;13449;49.374;8.584;2023-02-28T08:37:25;101630.78;;;1.92;61.22
24486;BME280;13449;49.374;8.584;2023-02-28T08:39:51;101650.75;;;1.88;61.16
24486;BME280;13449;49.374;8.584;2023-02-28T08:42:21;101636.94;;;1.94;61.20
24486;BME280;13449;49.374;8.584;2023-02-28T08:44:48;101632.06;;;2.00;61.39
24486;BME280;13449;49.374;8.584;2023-02-28T08:47:14;101633.72;;;2.15;60.90
24486;BME280;13449;49.374;8.584;2023-02-28T08:49:45;101641.50;;;2.19;60.70
24486;BME280;13449;49.374;8.584;2023-02-28T08:52:12;101650.75;;;2.15;60.54
24486;BME280;13449;49.374;8.584;2023-02-28T08:54:38;101646.16;;;2.30;60.09
24486;BME280;13449;49.374;8.584;2023-02-28T08:57:07;101639.16;;;2.40;60.31
24486;BME280;13449;49.374;8.584;2023-02-28T08:59:36;101657.91;;;2.41;59.56
24486;BME280;13449;49.374;8.584;2023-02-28T09:02:02;101664.91;;;2.44;59.22
24486;BME280;13449;49.374;8.584;2023-02-28T09:04:29;101657.47;;;2.48;59.58
24486;BME280;13449;49.374;8.584;2023-02-28T09:06:57;101665.16;;;2.54;58.96
24486;BME280;13449;49.374;8.584;2023-02-28T09:09:23;101671.72;;;2.62;58.77
24486;BME280;13449;49.374;8.584;2023-02-28T09:11:55;101677.25;;;2.73;58.99
24486;BME280;13449;49.374;8.584;2023-02-28T09:14:21;101689.53;;;2.77;58.48
24486;BME280;13449;49.374;8.584;2023-02-28T09:16:48;101701.75;;;2.56;57.38
24486;BME280;13449;49.374;8.584;2023-02-28T09:19:17;101695.53;;;2.68;58.09
24486;BME280;13449;49.374;8.584;2023-02-28T09:21:44;101692.63;;;2.71;57.28
24486;BME280;13449;49.374;8.584;2023-02-28T09:24:10;101693.91;;;2.78;57.46
24486;BME280;13449;49.374;8.584;2023-02-28T09:26:40;101704.59;;;2.92;56.66
24486;BME280;13449;49.374;8.584;2023-02-28T09:29:21;101701.88;;;2.92;56.69
24486;BME280;13449;49.374;8.584;2023-02-28T09:31:47;101703.22;;;3.00;56.67
24486;BME280;13449;49.374;8.584;2023-02-28T09:34:14;101696.50;;;3.05;56.47
24486;BME280;13449;49.374;8.584;2023-02-28T09:36:43;101709.09;;;3.30;56.09
24486;BME280;13449;49.374;8.584;2023-02-28T09:39:12;101712.47;;;3.33;56.37
24486;BME280;13449;49.374;8.584;2023-02-28T09:41:45;101704.47;;;3.45;55.85
24486;BME280;13449;49.374;8.584;2023-02-28T09:44:40;101709.72;;;3.59;56.49
24486;BME280;13449;49.374;8.584;2023-02-28T09:49:47;101726.72;;;3.72;54.71
24486;BME280;13449;49.374;8.584;2023-02-28T09:52:17;101743.78;;;3.72;54.28
24486;BME280;13449;49.374;8.584;2023-02-28T09:54:47;101760.50;;;3.65;53.89
24486;BME280;13449;49.374;8.584;2023-02-28T09:57:19;101759.31;;;3.69;53.50
24486;BME280;13449;49.374;8.584;2023-02-28T10:11:33;101755.59;;;3.82;53.16
24486;BME280;13449;49.374;8.584;2023-02-28T10:14:14;101771.38;;;3.88;53.40
24486;BME280;13449;49.374;8.584;2023-02-28T10:17:03;101776.69;;;3.77;53.01
24486;BME280;13449;49.374;8.584;2023-02-28T10:19:42;101769.47;;;3.65;53.21
24486;BME280;13449;49.374;8.584;2023-02-28T10:22:20;101772.16;;;3.65;52.55
24486;BME280;13449;49.374;8.584;2023-02-28T10:24:52;101770.25;;;3.55;53.09
24486;BME280;13449;49.374;8.584;2023-02-28T10:27:22;101762.03;;;3.56;53.61
24486;BME280;13449;49.374;8.584;2023-02-28T10:29:52;101750.81;;;3.62;54.13
24486;BME280;13449;49.374;8.584;2023-02-28T10:32:29;101759.97;;;3.72;53.11
24486;BME280;13449;49.374;8.584;2023-02-28T10:35:00;101755.44;;;3.60;52.95
24486;BME280;13449;49.374;8.584;2023-02-28T10:37:28;101747.78;;;3.67;53.37
24486;BME280;13449;49.374;8.584;2023-02-28T10:39:55;101749.16;;;3.72;52.95
24486;BME280;13449;49.374;8.584;2023-02-28T10:42:29;101762.66;;;3.72;52.99
24486;BME280;13449;49.374;8.584;2023-02-28T10:45:09;101770.97;;;3.69;52.14
24486;BME280;13449;49.374;8.584;2023-02-28T10:47:54;101760.19;;;3.69;53.00
24486;BME280;13449;49.374;8.584;2023-02-28T10:50:46;101749.09;;;3.61;53.40
24486;BME280;13449;49.374;8.584;2023-02-28T10:58:44;101741.00;;;3.98;52.64
24486;BME280;13449;49.374;8.584;2023-02-28T11:01:19;101772.88;;;4.16;50.64
24486;BME280;13449;49.374;8.584;2023-02-28T11:03:46;101774.81;;;4.27;51.86
24486;BME280;13449;49.374;8.584;2023-02-28T11:06:19;101801.03;;;4.37;49.52
24486;BME280;13449;49.374;8.584;2023-02-28T11:09:00;101802.75;;;4.38;49.97
24486;BME280;13449;49.374;8.584;2023-02-28T11:11:30;101802.88;;;4.61;49.78
24486;BME280;13449;49.374;8.584;2023-02-28T11:14:18;101815.50;;;4.60;49.42
24486;BME280;13449;49.374;8.584;2023-02-28T11:16:47;101807.75;;;4.79;49.34
24486;BME280;13449;49.374;8.584;2023-02-28T11:19:24;101819.09;;;4.96;49.33
24486;BME280;13449;49.374;8.584;2023-02-28T11:21:59;101811.53;;;5.12;49.04
24486;BME280;13449;49.374;8.584;2023-02-28T11:24:36;101831.00;;;5.28;48.58
24486;BME280;13449;49.374;8.584;2023-02-28T11:27:03;101835.56;;;5.39;48.33
24486;BME280;13449;49.374;8.584;2023-02-28T11:29:33;101829.16;;;5.28;48.46
24486;BME280;13449;49.374;8.584;2023-02-28T11:34:38;101840.75;;;5.42;48.35
24486;BME280;13449;49.374;8.584;2023-02-28T11:37:14;101849.00;;;5.51;47.83
24486;BME280;13449;49.374;8.584;2023-02-28T11:39:42;101851.56;;;5.42;47.63
24486;BME280;13449;49.374;8.584;2023-02-28T11:50:20;101842.25;;;5.11;48.56
24486;BME280;13449;49.374;8.584;2023-02-28T11:52:53;101837.38;;;5.27;47.85
24486;BME280;13449;49.374;8.584;2023-02-28T11:55:37;101835.41;;;5.29;47.97
24486;BME280;13449;49.374;8.584;2023-02-28T12:06:38;101836.22;;;5.64;47.64
24486;BME280;13449;49.374;8.584;2023-02-28T12:12:19;101833.63;;;5.63;46.82
24486;BME280;13449;49.374;8.584;2023-02-28T12:28:26;101855.19;;;5.64;46.34
24486;BME280;13449;49.374;8.584;2023-02-28T12:31:20;101848.25;;;5.49;46.59
24486;BME280;13449;49.374;8.584;2023-02-28T12:33:52;101847.38;;;5.38;46.46
24486;BME280;13449;49.374;8.584;2023-02-28T12:36:22;101837.91;;;5.32;47.22
24486;BME280;13449;49.374;8.584;2023-02-28T12:39:14;101838.31;;;5.15;47.16
24486;BME280;13449;49.374;8.584;2023-02-28T12:42:02;101829.34;;;5.14;47.92
24486;BME280;13449;49.374;8.584;2023-02-28T12:44:40;101818.53;;;5.14;47.58
24486;BME280;13449;49.374;8.584;2023-02-28T12:47:15;101807.63;;;5.16;47.12
24486;BME280;13449;49.374;8.584;2023-02-28T12:49:52;101814.75;;;5.17;48.25
24486;BME280;13449;49.374;8.584;2023-02-28T12:52:34;101796.31;;;5.22;47.90
24486;BME280;13449;49.374;8.584;2023-02-28T12:58:31;101801.53;;;5.36;47.53
24486;BME280;13449;49.374;8.584;2023-02-28T13:01:20;101804.59;;;5.43;46.39
24486;BME280;13449;49.374;8.584;2023-02-28T13:04:14;101814.06;;;5.48;47.07
24486;BME280;13449;49.374;8.584;2023-02-28T13:09:17;101796.38;;;5.66;48.23
24486;BME280;13449;49.374;8.584;2023-02-28T13:11:48;101790.00;;;5.78;47.48
24486;BME280;13449;49.374;8.584;2023-02-28T13:17:10;101797.25;;;5.67;47.38
24486;BME280;13449;49.374;8.584;2023-02-28T13:22:43;101800.69;;;5.47;46.95
24486;BME280;13449;49.374;8.584;2023-02-28T13:27:50;101798.81;;;5.36;47.32
24486;BME280;13449;49.374;8.584;2023-02-28T13:35:50;101776.06;;;5.39;48.08
24486;BME280;13449;49.374;8.584;2023-02-28T13:38:35;101779.75;;;5.38;48.50
24486;BME280;13449;49.374;8.584;2023-02-28T13:46:29;101783.84;;;5.43;47.27
24486;BME280;13449;49.374;8.584;2023-02-28T13:48:56;101762.41;;;5.40;48.07
24486;BME280;13449;49.374;8.584;2023-02-28T13:51:46;101759.97;;;5.37;47.87
24486;BME280;13449;49.374;8.584;2023-02-28T14:03:00;101762.56;;;5.61;47.76
24486;BME280;13449;49.374;8.584;2023-02-28T14:05:33;101765.28;;;5.61;46.75
24486;BME280;13449;49.374;8.584;2023-02-28T14:08:21;101779.78;;;5.71;47.34
24486;BME280;13449;49.374;8.584;2023-02-28T14:11:03;101776.81;;;5.63;46.78
24486;BME280;13449;49.374;8.584;2023-02-28T14:13:45;101769.72;;;5.62;47.42
24486;BME280;13449;49.374;8.584;2023-02-28T14:16:17;101771.91;;;5.57;47.73
24486;BME280;13449;49.374;8.584;2023-02-28T14:18:51;101779.41;;;5.64;47.72
24486;BME280;13449;49.374;8.584;2023-02-28T14:21:31;101770.31;;;5.54;48.07
24486;BME280;13449;49.374;8.584;2023-02-28T14:29:37;101766.38;;;5.58;47.53
24486;BME280;13449;49.374;8.584;2023-02-28T14:34:55;101767.00;;;5.62;47.28
24486;BME280;13449;49.374;8.584;2023-02-28T14:37:33;101766.84;;;5.52;47.23
24486;BME280;13449;49.374;8.584;2023-02-28T14:40:04;101773.03;;;5.65;47.53
24486;BME280;13449;49.374;8.584;2023-02-28T14:42:37;101763.28;;;5.63;47.77
24486;BME280;13449;49.374;8.584;2023-02-28T14:45:20;101769.56;;;5.63;48.36
24486;BME280;13449;49.374;8.584;2023-02-28T14:47:49;101774.72;;;5.66;47.22
24486;BME280;13449;49.374;8.584;2023-02-28T14:50:24;101777.06;;;5.60;47.37
24486;BME280;13449;49.374;8.584;2023-02-28T14:52:54;101763.69;;;5.47;47.47
24486;BME280;13449;49.374;8.584;2023-02-28T14:55:27;101769.09;;;5.47;47.70
24486;BME280;13449;49.374;8.584;2023-02-28T14:57:58;101763.03;;;5.44;48.01
24486;BME280;13449;49.374;8.584;2023-02-28T15:00:29;101764.75;;;5.45;47.97
24486;BME280;13449;49.374;8.584;2023-02-28T15:02:58;101747.91;;;5.41;48.33
24486;BME280;13449;49.374;8.584;2023-02-28T15:05:27;101738.47;;;5.47;48.40
24486;BME280;13449;49.374;8.584;2023-02-28T15:08:06;101745.72;;;5.46;48.90
24486;BME280;13449;49.374;8.584;2023-02-28T15:10:36;101747.66;;;5.33;49.04
24486;BME280;13449;49.374;8.584;2023-02-28T15:13:14;101728.97;;;5.30;49.03
24486;BME280;13449;49.374;8.584;2023-02-28T15:20:55;101731.91;;;5.16;48.90
24486;BME280;13449;49.374;8.584;2023-02-28T15:23:23;101730.44;;;5.12;49.04
24486;BME280;13449;49.374;8.584;2023-02-28T15:25:50;101720.72;;;5.09;49.63
24486;BME280;13449;49.374;8.584;2023-02-28T15:28:20;101722.56;;;5.09;50.12
24486;BME280;13449;49.374;8.584;2023-02-28T15:30:55;101722.06;;;5.04;49.65
24486;BME280;13449;49.374;8.584;2023-02-28T15:33:28;101710.00;;;4.97;49.71